sensor_id;sensor_type;location;lat;lon;timestamp;P1;durP1;ratioP1;P2;durP2;ratioP2
64110;SDS011;50401;48.188;11.566;2023-02-21T00:01:45;7.10;;;2.40;;
64110;SDS011;50401;48.188;11.566;2023-02-21T00:04:28;8.90;;;1.70;;
64110;SDS011;50401;48.188;11.566;2023-02-21T00:07:12;7.15;;;2.20;;
64110;SDS011;50401;48.188;11.566;2023-02-21T00:09:56;3.75;;;1.75;;
64110;SDS011;50401;48.188;11.566;2023-02-21T00:12:40;4.82;;;1.90;;
64110;SDS011;50401;48.188;11.566;2023-02-21T00:15:24;3.20;;;1.60;;
64110;SDS011;50401;48.188;11.566;2023-02-21T00:18:08;6.47;;;2.10;;
64110;SDS011;50401;48.188;11.566;2023-02-21T00:20:52;8.02;;;2.10;;
64110;SDS011;50401;48.188;11.566;2023-02-21T00:23:36;14.02;;;2.30;;
64110;SDS011;50401;48.188;11.566;2023-02-21T00:26:20;3.72;;;1.80;;
64110;SDS011;50401;48.188;11.566;2023-02-21T00:29:05;2.60;;;1.75;;
64110;SDS011;50401;48.188;11.566;2023-02-21T00:31:50;4.90;;;2.10;;
64110;SDS011;50401;48.188;11.566;2023-02-21T00:34:34;7.72;;;2.40;;
64110;SDS011;50401;48.188;11.566;2023-02-21T00:37:18;4.32;;;2.17;;
64110;SDS011;50401;48.188;11.566;2023-02-21T00:40:02;4.25;;;1.90;;
64110;SDS011;50401;48.188;11.566;2023-02-21T00:42:47;12.13;;;3.00;;
64110;SDS011;50401;48.188;11.566;2023-02-21T00:45:31;11.95;;;2.35;;
64110;SDS011;50401;48.188;11.566;2023-02-21T00:48:19;6.97;;;2.08;;
64110;SDS011;50401;48.188;11.566;2023-02-21T00:51:07;6.95;;;2.20;;
64110;SDS011;50401;48.188;11.566;2023-02-21T00:53:52;8.95;;;2.50;;
64110;SDS011;50401;48.188;11.566;2023-02-21T00:56:36;5.10;;;2.28;;
64110;SDS011;50401;48.188;11.566;2023-02-21T00:59:21;3.58;;;2.25;;
64110;SDS011;50401;48.188;11.566;2023-02-21T01:02:05;6.72;;;2.92;;
64110;SDS011;50401;48.188;11.566;2023-02-21T01:04:49;5.65;;;2.42;;
64110;SDS011;50401;48.188;11.566;2023-02-21T01:07:33;10.68;;;4.45;;
64110;SDS011;50401;48.188;11.566;2023-02-21T01:10:18;10.32;;;4.18;;
64110;SDS011;50401;48.188;11.566;2023-02-21T01:13:02;15.73;;;3.55;;
64110;SDS011;50401;48.188;11.566;2023-02-21T01:15:47;10.50;;;3.30;;
64110;SDS011;50401;48.188;11.566;2023-02-21T01:18:31;8.90;;;3.08;;
64110;SDS011;50401;48.188;11.566;2023-02-21T01:21:16;11.90;;;4.57;;
64110;SDS011;50401;48.188;11.566;2023-02-21T01:24:01;10.10;;;4.25;;
64110;SDS011;50401;48.188;11.566;2023-02-21T01:26:45;8.77;;;4.53;;
64110;SDS011;50401;48.188;11.566;2023-02-21T01:29:30;9.80;;;3.83;;
64110;SDS011;50401;48.188;11.566;2023-02-21T01:32:14;8.77;;;3.63;;
64110;SDS011;50401;48.188;11.566;2023-02-21T01:34:59;12.30;;;4.45;;
64110;SDS011;50401;48.188;11.566;2023-02-21T01:37:43;10.57;;;4.53;;
64110;SDS011;50401;48.188;11.566;2023-02-21T01:40:27;8.13;;;4.43;;
64110;SDS011;50401;48.188;11.566;2023-02-21T01:43:15;12.45;;;4.47;;
64110;SDS011;50401;48.188;11.566;2023-02-21T01:46:00;9.82;;;3.92;;
64110;SDS011;50401;48.188;11.566;2023-02-21T01:48:44;14.85;;;4.63;;
64110;SDS011;50401;48.188;11.566;2023-02-21T01:51:31;10.68;;;3.67;;
64110;SDS011;50401;48.188;11.566;2023-02-21T01:54:19;11.57;;;4.00;;
64110;SDS011;50401;48.188;11.566;2023-02-21T01:57:05;8.45;;;4.32;;
64110;SDS011;50401;48.188;11.566;2023-02-21T01:59:50;12.52;;;4.65;;
64110;SDS011;50401;48.188;11.566;2023-02-21T02:05:49;7.60;;;3.97;;
64110;SDS011;50401;48.188;11.566;2023-02-21T02:08:37;9.23;;;5.25;;
64110;SDS011;50401;48.188;11.566;2023-02-21T02:11:27;13.52;;;4.93;;
64110;SDS011;50401;48.188;11.566;2023-02-21T02:21:01;13.65;;;4.68;;
64110;SDS011;50401;48.188;11.566;2023-02-21T02:31:40;16.23;;;4.38;;
64110;SDS011;50401;48.188;11.566;2023-02-21T02:40:24;13.48;;;6.63;;
64110;SDS011;50401;48.188;11.566;2023-02-21T02:42:58;14.07;;;5.75;;
64110;SDS011;50401;48.188;11.566;2023-02-21T02:48:26;11.18;;;5.97;;
64110;SDS011;50401;48.188;11.566;2023-02-21T02:50:57;15.90;;;6.03;;
64110;SDS011;50401;48.188;11.566;2023-02-21T02:53:27;16.95;;;6.90;;
64110;SDS011;50401;48.188;11.566;2023-02-21T02:56:04;12.23;;;5.70;;
64110;SDS011;50401;48.188;11.566;2023-02-21T02:58:39;11.95;;;6.28;;
64110;SDS011;50401;48.188;11.566;2023-02-21T03:06:33;10.60;;;5.60;;
64110;SDS011;50401;48.188;11.566;2023-02-21T03:09:07;11.52;;;5.20;;
64110;SDS011;50401;48.188;11.566;2023-02-21T03:11:36;15.52;;;5.93;;
64110;SDS011;50401;48.188;11.566;2023-02-21T03:14:14;15.23;;;5.55;;
64110;SDS011;50401;48.188;11.566;2023-02-21T03:16:44;16.60;;;6.55;;
64110;SDS011;50401;48.188;11.566;2023-02-21T03:19:18;16.17;;;6.28;;
64110;SDS011;50401;48.188;11.566;2023-02-21T03:21:57;10.57;;;6.20;;
64110;SDS011;50401;48.188;11.566;2023-02-21T03:24:26;17.20;;;6.35;;
64110;SDS011;50401;48.188;11.566;2023-02-21T03:26:53;12.75;;;5.82;;
64110;SDS011;50401;48.188;11.566;2023-02-21T03:29:21;11.05;;;6.13;;
64110;SDS011;50401;48.188;11.566;2023-02-21T03:31:55;19.80;;;5.82;;
64110;SDS011;50401;48.188;11.566;2023-02-21T03:34:34;10.35;;;5.32;;
64110;SDS011;50401;48.188;11.566;2023-02-21T03:37:01;11.80;;;5.50;;
64110;SDS011;50401;48.188;11.566;2023-02-21T03:39:28;10.65;;;5.60;;
64110;SDS011;50401;48.188;11.566;2023-02-21T03:41:53;14.43;;;5.50;;
64110;SDS011;50401;48.188;11.566;2023-02-21T03:44:19;13.18;;;4.95;;
64110;SDS011;50401;48.188;11.566;2023-02-21T03:46:44;12.77;;;4.65;;
64110;SDS011;50401;48.188;11.566;2023-02-21T03:49:09;16.27;;;5.80;;
64110;SDS011;50401;48.188;11.566;2023-02-21T03:51:35;12.25;;;5.13;;
64110;SDS011;50401;48.188;11.566;2023-02-21T03:54:00;18.95;;;5.25;;
64110;SDS011;50401;48.188;11.566;2023-02-21T03:56:25;11.32;;;5.28;;
64110;SDS011;50401;48.188;11.566;2023-02-21T03:58:51;10.65;;;4.50;;
64110;SDS011;50401;48.188;11.566;2023-02-21T04:01:16;13.23;;;4.28;;
64110;SDS011;50401;48.188;11.566;2023-02-21T04:03:42;18.42;;;6.72;;
64110;SDS011;50401;48.188;11.566;2023-02-21T04:06:07;9.77;;;4.78;;
64110;SDS011;50401;48.188;11.566;2023-02-21T04:08:32;11.57;;;4.50;;
64110;SDS011;50401;48.188;11.566;2023-02-21T04:10:58;10.75;;;5.13;;
64110;SDS011;50401;48.188;11.566;2023-02-21T04:13:23;13.20;;;5.38;;
64110;SDS011;50401;48.188;11.566;2023-02-21T04:15:49;15.35;;;6.05;;
64110;SDS011;50401;48.188;11.566;2023-02-21T04:18:14;13.32;;;4.65;;
64110;SDS011;50401;48.188;11.566;2023-02-21T04:20:39;13.80;;;5.00;;
64110;SDS011;50401;48.188;11.566;2023-02-21T04:23:05;12.35;;;4.70;;
64110;SDS011;50401;48.188;11.566;2023-02-21T04:25:30;7.65;;;4.93;;
64110;SDS011;50401;48.188;11.566;2023-02-21T04:27:57;9.82;;;5.18;;
64110;SDS011;50401;48.188;11.566;2023-02-21T04:30:22;14.55;;;4.75;;
64110;SDS011;50401;48.188;11.566;2023-02-21T04:32:48;17.52;;;5.20;;
64110;SDS011;50401;48.188;11.566;2023-02-21T04:35:14;12.52;;;5.20;;
64110;SDS011;50401;48.188;11.566;2023-02-21T04:37:39;15.57;;;5.15;;
64110;SDS011;50401;48.188;11.566;2023-02-21T04:40:05;12.40;;;4.90;;
64110;SDS011;50401;48.188;11.566;2023-02-21T04:42:30;14.93;;;5.70;;
64110;SDS011;50401;48.188;11.566;2023-02-21T04:44:56;13.38;;;4.47;;
64110;SDS011;50401;48.188;11.566;2023-02-21T04:47:21;12.07;;;4.68;;
64110;SDS011;50401;48.188;11.566;2023-02-21T04:49:46;9.10;;;4.45;;
64110;SDS011;50401;48.188;11.566;2023-02-21T04:52:16;19.60;;;5.60;;
64110;SDS011;50401;48.188;11.566;2023-02-21T04:54:44;14.80;;;5.50;;
64110;SDS011;50401;48.188;11.566;2023-02-21T04:57:09;11.20;;;5.18;;
64110;SDS011;50401;48.188;11.566;2023-02-21T04:59:35;13.00;;;5.70;;
64110;SDS011;50401;48.188;11.566;2023-02-21T05:02:00;21.60;;;6.75;;
64110;SDS011;50401;48.188;11.566;2023-02-21T05:04:26;14.68;;;6.03;;
64110;SDS011;50401;48.188;11.566;2023-02-21T05:06:51;9.52;;;4.90;;
64110;SDS011;50401;48.188;11.566;2023-02-21T05:09:17;15.85;;;4.60;;
64110;SDS011;50401;48.188;11.566;2023-02-21T05:11:42;12.35;;;4.82;;
64110;SDS011;50401;48.188;11.566;2023-02-21T05:14:08;33.05;;;5.82;;
64110;SDS011;50401;48.188;11.566;2023-02-21T05:16:33;17.80;;;4.70;;
64110;SDS011;50401;48.188;11.566;2023-02-21T05:18:59;28.30;;;6.22;;
64110;SDS011;50401;48.188;11.566;2023-02-21T05:21:26;15.82;;;4.10;;
64110;SDS011;50401;48.188;11.566;2023-02-21T05:23:52;18.48;;;4.50;;
64110;SDS011;50401;48.188;11.566;2023-02-21T05:26:21;11.20;;;4.25;;
64110;SDS011;50401;48.188;11.566;2023-02-21T05:28:51;19.20;;;4.70;;
64110;SDS011;50401;48.188;11.566;2023-02-21T05:31:17;18.73;;;4.65;;
64110;SDS011;50401;48.188;11.566;2023-02-21T05:33:43;24.23;;;6.43;;
64110;SDS011;50401;48.188;11.566;2023-02-21T05:36:08;16.95;;;4.70;;
64110;SDS011;50401;48.188;11.566;2023-02-21T05:38:37;15.75;;;3.90;;
64110;SDS011;50401;48.188;11.566;2023-02-21T05:41:08;12.65;;;4.55;;
64110;SDS011;50401;48.188;11.566;2023-02-21T05:43:34;7.43;;;4.53;;
64110;SDS011;50401;48.188;11.566;2023-02-21T05:45:59;17.80;;;3.88;;
64110;SDS011;50401;48.188;11.566;2023-02-21T05:48:25;15.20;;;4.85;;
64110;SDS011;50401;48.188;11.566;2023-02-21T05:50:50;15.50;;;5.03;;
64110;SDS011;50401;48.188;11.566;2023-02-21T05:53:16;14.48;;;4.68;;
64110;SDS011;50401;48.188;11.566;2023-02-21T05:55:41;25.00;;;5.15;;
64110;SDS011;50401;48.188;11.566;2023-02-21T05:58:07;30.02;;;4.70;;
64110;SDS011;50401;48.188;11.566;2023-02-21T06:00:32;19.85;;;4.53;;
64110;SDS011;50401;48.188;11.566;2023-02-21T06:02:57;9.25;;;4.15;;
64110;SDS011;50401;48.188;11.566;2023-02-21T06:05:23;10.32;;;3.88;;
64110;SDS011;50401;48.188;11.566;2023-02-21T06:07:49;17.25;;;4.82;;
64110;SDS011;50401;48.188;11.566;2023-02-21T06:10:15;19.23;;;4.20;;
64110;SDS011;50401;48.188;11.566;2023-02-21T06:12:41;9.23;;;4.38;;
64110;SDS011;50401;48.188;11.566;2023-02-21T06:15:07;18.02;;;4.68;;
64110;SDS011;50401;48.188;11.566;2023-02-21T06:17:37;22.73;;;5.35;;
64110;SDS011;50401;48.188;11.566;2023-02-21T06:20:04;20.35;;;5.30;;
64110;SDS011;50401;48.188;11.566;2023-02-21T06:22:31;16.45;;;5.15;;
64110;SDS011;50401;48.188;11.566;2023-02-21T06:24:56;40.92;;;6.28;;
64110;SDS011;50401;48.188;11.566;2023-02-21T06:27:22;23.15;;;6.07;;
64110;SDS011;50401;48.188;11.566;2023-02-21T06:29:47;25.40;;;5.55;;
64110;SDS011;50401;48.188;11.566;2023-02-21T06:32:13;25.42;;;6.13;;
64110;SDS011;50401;48.188;11.566;2023-02-21T06:34:38;29.08;;;5.15;;
64110;SDS011;50401;48.188;11.566;2023-02-21T06:37:04;24.17;;;5.78;;
64110;SDS011;50401;48.188;11.566;2023-02-21T06:39:30;25.42;;;5.60;;
64110;SDS011;50401;48.188;11.566;2023-02-21T06:41:56;35.30;;;4.85;;
64110;SDS011;50401;48.188;11.566;2023-02-21T06:44:22;21.85;;;4.55;;
64110;SDS011;50401;48.188;11.566;2023-02-21T06:46:47;25.98;;;4.85;;
64110;SDS011;50401;48.188;11.566;2023-02-21T06:49:14;24.98;;;4.70;;
64110;SDS011;50401;48.188;11.566;2023-02-21T06:51:40;39.00;;;4.72;;
64110;SDS011;50401;48.188;11.566;2023-02-21T06:54:06;35.03;;;4.80;;
64110;SDS011;50401;48.188;11.566;2023-02-21T06:56:32;29.92;;;6.75;;
64110;SDS011;50401;48.188;11.566;2023-02-21T06:58:58;25.63;;;4.47;;
64110;SDS011;50401;48.188;11.566;2023-02-21T07:01:24;42.30;;;4.68;;
64110;SDS011;50401;48.188;11.566;2023-02-21T07:03:54;65.65;;;6.55;;
64110;SDS011;50401;48.188;11.566;2023-02-21T07:08:48;63.22;;;5.78;;
64110;SDS011;50401;48.188;11.566;2023-02-21T07:11:14;45.15;;;4.45;;
64110;SDS011;50401;48.188;11.566;2023-02-21T07:13:41;33.65;;;4.07;;
64110;SDS011;50401;48.188;11.566;2023-02-21T07:16:11;45.65;;;5.60;;
64110;SDS011;50401;48.188;11.566;2023-02-21T07:18:38;65.35;;;6.25;;
64110;SDS011;50401;48.188;11.566;2023-02-21T07:21:03;40.03;;;4.70;;
64110;SDS011;50401;48.188;11.566;2023-02-21T07:23:29;81.63;;;7.28;;
64110;SDS011;50401;48.188;11.566;2023-02-21T07:25:54;75.85;;;6.97;;
64110;SDS011;50401;48.188;11.566;2023-02-21T07:28:20;25.73;;;4.05;;
64110;SDS011;50401;48.188;11.566;2023-02-21T07:30:45;36.53;;;4.45;;
64110;SDS011;50401;48.188;11.566;2023-02-21T07:33:11;44.75;;;5.50;;
64110;SDS011;50401;48.188;11.566;2023-02-21T07:35:36;45.65;;;5.57;;
64110;SDS011;50401;48.188;11.566;2023-02-21T07:38:01;55.80;;;6.45;;
64110;SDS011;50401;48.188;11.566;2023-02-21T07:40:27;31.52;;;4.63;;
64110;SDS011;50401;48.188;11.566;2023-02-21T07:42:52;42.15;;;5.55;;
64110;SDS011;50401;48.188;11.566;2023-02-21T07:45:18;57.97;;;6.22;;
64110;SDS011;50401;48.188;11.566;2023-02-21T07:47:44;46.60;;;5.80;;
64110;SDS011;50401;48.188;11.566;2023-02-21T07:50:10;60.90;;;7.45;;
64110;SDS011;50401;48.188;11.566;2023-02-21T07:52:36;89.70;;;8.75;;
64110;SDS011;50401;48.188;11.566;2023-02-21T07:55:01;56.42;;;6.45;;
64110;SDS011;50401;48.188;11.566;2023-02-21T07:57:27;40.25;;;5.82;;
64110;SDS011;50401;48.188;11.566;2023-02-21T07:59:52;41.63;;;6.05;;
64110;SDS011;50401;48.188;11.566;2023-02-21T08:02:18;43.20;;;5.63;;
64110;SDS011;50401;48.188;11.566;2023-02-21T08:04:43;41.35;;;4.70;;
64110;SDS011;50401;48.188;11.566;2023-02-21T08:07:09;45.10;;;5.32;;
64110;SDS011;50401;48.188;11.566;2023-02-21T08:09:34;90.78;;;7.65;;
64110;SDS011;50401;48.188;11.566;2023-02-21T08:12:01;42.78;;;6.30;;
64110;SDS011;50401;48.188;11.566;2023-02-21T08:14:26;15.93;;;3.60;;
64110;SDS011;50401;48.188;11.566;2023-02-21T08:16:52;74.82;;;8.45;;
64110;SDS011;50401;48.188;11.566;2023-02-21T08:19:17;61.15;;;5.82;;
64110;SDS011;50401;48.188;11.566;2023-02-21T08:21:46;47.28;;;5.15;;
64110;SDS011;50401;48.188;11.566;2023-02-21T08:24:12;18.73;;;4.10;;
64110;SDS011;50401;48.188;11.566;2023-02-21T08:26:38;47.10;;;5.60;;
64110;SDS011;50401;48.188;11.566;2023-02-21T08:29:06;68.65;;;6.75;;
64110;SDS011;50401;48.188;11.566;2023-02-21T08:31:36;23.60;;;4.72;;
64110;SDS011;50401;48.188;11.566;2023-02-21T08:34:02;19.95;;;4.40;;
64110;SDS011;50401;48.188;11.566;2023-02-21T08:36:32;20.75;;;4.82;;
64110;SDS011;50401;48.188;11.566;2023-02-21T08:38:59;27.63;;;4.68;;
64110;SDS011;50401;48.188;11.566;2023-02-21T08:41:24;47.17;;;5.60;;
64110;SDS011;50401;48.188;11.566;2023-02-21T08:43:50;20.73;;;4.05;;
64110;SDS011;50401;48.188;11.566;2023-02-21T08:46:15;34.22;;;4.38;;
64110;SDS011;50401;48.188;11.566;2023-02-21T08:48:41;31.23;;;4.65;;
64110;SDS011;50401;48.188;11.566;2023-02-21T08:51:06;71.63;;;6.93;;
64110;SDS011;50401;48.188;11.566;2023-02-21T08:53:31;22.20;;;4.20;;
64110;SDS011;50401;48.188;11.566;2023-02-21T08:55:57;21.08;;;3.85;;
64110;SDS011;50401;48.188;11.566;2023-02-21T08:58:22;19.08;;;4.00;;
64110;SDS011;50401;48.188;11.566;2023-02-21T09:00:48;19.40;;;3.78;;
64110;SDS011;50401;48.188;11.566;2023-02-21T09:03:13;31.77;;;4.68;;
64110;SDS011;50401;48.188;11.566;2023-02-21T09:05:39;43.58;;;6.03;;
64110;SDS011;50401;48.188;11.566;2023-02-21T09:08:04;28.52;;;4.45;;
64110;SDS011;50401;48.188;11.566;2023-02-21T09:10:33;10.35;;;3.30;;
64110;SDS011;50401;48.188;11.566;2023-02-21T09:12:58;28.55;;;4.00;;
64110;SDS011;50401;48.188;11.566;2023-02-21T09:15:25;29.52;;;4.00;;
64110;SDS011;50401;48.188;11.566;2023-02-21T09:17:51;24.48;;;3.45;;
64110;SDS011;50401;48.188;11.566;2023-02-21T09:20:19;22.75;;;3.78;;
64110;SDS011;50401;48.188;11.566;2023-02-21T09:22:46;28.02;;;4.28;;
64110;SDS011;50401;48.188;11.566;2023-02-21T09:25:14;36.17;;;4.15;;
64110;SDS011;50401;48.188;11.566;2023-02-21T09:27:41;29.75;;;4.43;;
64110;SDS011;50401;48.188;11.566;2023-02-21T09:30:08;17.30;;;3.58;;
64110;SDS011;50401;48.188;11.566;2023-02-21T09:32:40;17.92;;;3.28;;
64110;SDS011;50401;48.188;11.566;2023-02-21T09:35:06;51.42;;;5.68;;
64110;SDS011;50401;48.188;11.566;2023-02-21T09:37:35;46.63;;;4.88;;
64110;SDS011;50401;48.188;11.566;2023-02-21T09:40:01;20.60;;;3.70;;
64110;SDS011;50401;48.188;11.566;2023-02-21T09:42:29;18.60;;;3.73;;
64110;SDS011;50401;48.188;11.566;2023-02-21T09:44:56;56.55;;;6.65;;
64110;SDS011;50401;48.188;11.566;2023-02-21T09:47:34;28.80;;;4.25;;
64110;SDS011;50401;48.188;11.566;2023-02-21T09:50:04;16.30;;;3.30;;
64110;SDS011;50401;48.188;11.566;2023-02-21T09:52:37;11.63;;;2.60;;
64110;SDS011;50401;48.188;11.566;2023-02-21T09:58:17;25.20;;;3.22;;
64110;SDS011;50401;48.188;11.566;2023-02-21T10:00:44;31.50;;;3.35;;
64110;SDS011;50401;48.188;11.566;2023-02-21T10:03:14;20.10;;;3.03;;
64110;SDS011;50401;48.188;11.566;2023-02-21T10:08:33;9.57;;;1.77;;
64110;SDS011;50401;48.188;11.566;2023-02-21T10:14:00;15.10;;;2.85;;
64110;SDS011;50401;48.188;11.566;2023-02-21T10:19:42;24.20;;;2.83;;
64110;SDS011;50401;48.188;11.566;2023-02-21T10:22:15;22.20;;;3.78;;
64110;SDS011;50401;48.188;11.566;2023-02-21T10:24:43;4.07;;;1.80;;
64110;SDS011;50401;48.188;11.566;2023-02-21T10:27:29;17.23;;;2.42;;
64110;SDS011;50401;48.188;11.566;2023-02-21T10:30:02;11.77;;;1.93;;
64110;SDS011;50401;48.188;11.566;2023-02-21T10:32:31;15.02;;;2.20;;
64110;SDS011;50401;48.188;11.566;2023-02-21T10:34:57;11.30;;;1.88;;
64110;SDS011;50401;48.188;11.566;2023-02-21T10:43:16;17.23;;;2.90;;
64110;SDS011;50401;48.188;11.566;2023-02-21T10:48:27;21.55;;;2.88;;
64110;SDS011;50401;48.188;11.566;2023-02-21T10:53:35;15.75;;;3.42;;
64110;SDS011;50401;48.188;11.566;2023-02-21T10:59:00;14.35;;;2.00;;
64110;SDS011;50401;48.188;11.566;2023-02-21T11:01:41;12.52;;;2.35;;
64110;SDS011;50401;48.188;11.566;2023-02-21T11:06:48;13.90;;;2.22;;
64110;SDS011;50401;48.188;11.566;2023-02-21T11:14:32;22.75;;;2.40;;
64110;SDS011;50401;48.188;11.566;2023-02-21T11:17:05;8.55;;;1.92;;
64110;SDS011;50401;48.188;11.566;2023-02-21T11:22:07;24.23;;;2.95;;
64110;SDS011;50401;48.188;11.566;2023-02-21T11:24:42;14.73;;;2.20;;
64110;SDS011;50401;48.188;11.566;2023-02-21T11:27:10;15.68;;;2.38;;
64110;SDS011;50401;48.188;11.566;2023-02-21T11:29:37;15.80;;;2.50;;
64110;SDS011;50401;48.188;11.566;2023-02-21T11:32:10;59.42;;;4.38;;
64110;SDS011;50401;48.188;11.566;2023-02-21T11:34:43;33.65;;;3.20;;
64110;SDS011;50401;48.188;11.566;2023-02-21T11:37:13;37.35;;;3.85;;
64110;SDS011;50401;48.188;11.566;2023-02-21T11:39:38;23.80;;;2.00;;
64110;SDS011;50401;48.188;11.566;2023-02-21T11:42:22;8.38;;;1.80;;
64110;SDS011;50401;48.188;11.566;2023-02-21T11:47:43;19.50;;;2.40;;
64110;SDS011;50401;48.188;11.566;2023-02-21T11:50:16;8.70;;;1.98;;
64110;SDS011;50401;48.188;11.566;2023-02-21T11:53:14;4.80;;;1.50;;
64110;SDS011;50401;48.188;11.566;2023-02-21T11:58:30;7.13;;;1.73;;
64110;SDS011;50401;48.188;11.566;2023-02-21T12:01:07;15.27;;;2.20;;
64110;SDS011;50401;48.188;11.566;2023-02-21T12:03:58;8.45;;;2.15;;
64110;SDS011;50401;48.188;11.566;2023-02-21T12:12:46;9.90;;;1.75;;
64110;SDS011;50401;48.188;11.566;2023-02-21T12:21:02;18.60;;;2.15;;
64110;SDS011;50401;48.188;11.566;2023-02-21T12:23:40;19.05;;;2.47;;
64110;SDS011;50401;48.188;11.566;2023-02-21T12:27:14;23.33;;;2.45;;
64110;SDS011;50401;48.188;11.566;2023-02-21T12:40:07;25.85;;;2.30;;
64110;SDS011;50401;48.188;11.566;2023-02-21T12:42:46;11.90;;;1.58;;
64110;SDS011;50401;48.188;11.566;2023-02-21T12:45:35;2.70;;;1.15;;
64110;SDS011;50401;48.188;11.566;2023-02-21T12:48:15;7.18;;;1.60;;
64110;SDS011;50401;48.188;11.566;2023-02-21T12:50:42;8.73;;;1.52;;
64110;SDS011;50401;48.188;11.566;2023-02-21T12:55:41;5.70;;;1.40;;
64110;SDS011;50401;48.188;11.566;2023-02-21T13:01:06;1.63;;;1.10;;
64110;SDS011;50401;48.188;11.566;2023-02-21T13:09:36;9.48;;;2.20;;
64110;SDS011;50401;48.188;11.566;2023-02-21T13:12:06;7.78;;;1.73;;
64110;SDS011;50401;48.188;11.566;2023-02-21T13:14:46;4.53;;;1.60;;
64110;SDS011;50401;48.188;11.566;2023-02-21T13:17:15;7.35;;;1.80;;
64110;SDS011;50401;48.188;11.566;2023-02-21T13:19:44;11.55;;;4.82;;
64110;SDS011;50401;48.188;11.566;2023-02-21T13:28:52;14.02;;;1.85;;
64110;SDS011;50401;48.188;11.566;2023-02-21T13:31:23;1.88;;;1.25;;
64110;SDS011;50401;48.188;11.566;2023-02-21T13:33:58;2.08;;;1.20;;
64110;SDS011;50401;48.188;11.566;2023-02-21T13:36:27;2.03;;;1.15;;
64110;SDS011;50401;48.188;11.566;2023-02-21T13:38:56;7.18;;;1.58;;
64110;SDS011;50401;48.188;11.566;2023-02-21T13:41:37;15.35;;;2.50;;
64110;SDS011;50401;48.188;11.566;2023-02-21T13:44:07;5.68;;;1.50;;
64110;SDS011;50401;48.188;11.566;2023-02-21T13:57:50;12.32;;;3.40;;
64110;SDS011;50401;48.188;11.566;2023-02-21T14:06:14;9.65;;;1.42;;
64110;SDS011;50401;48.188;11.566;2023-02-21T14:29:11;6.05;;;0.90;;
64110;SDS011;50401;48.188;11.566;2023-02-21T14:37:01;6.57;;;1.13;;
64110;SDS011;50401;48.188;11.566;2023-02-21T14:39:30;7.15;;;2.42;;
64110;SDS011;50401;48.188;11.566;2023-02-21T14:49:58;7.82;;;1.10;;
64110;SDS011;50401;48.188;11.566;2023-02-21T14:52:51;9.98;;;1.30;;
64110;SDS011;50401;48.188;11.566;2023-02-21T14:58:02;3.22;;;1.13;;
64110;SDS011;50401;48.188;11.566;2023-02-21T15:03:46;11.05;;;1.75;;
64110;SDS011;50401;48.188;11.566;2023-02-21T15:06:23;12.20;;;1.92;;
64110;SDS011;50401;48.188;11.566;2023-02-21T15:08:52;15.77;;;1.42;;
64110;SDS011;50401;48.188;11.566;2023-02-21T15:11:24;7.93;;;1.30;;
64110;SDS011;50401;48.188;11.566;2023-02-21T15:14:12;13.18;;;2.15;;
64110;SDS011;50401;48.188;11.566;2023-02-21T15:16:48;14.38;;;1.70;;
64110;SDS011;50401;48.188;11.566;2023-02-21T15:19:20;8.48;;;1.58;;
64110;SDS011;50401;48.188;11.566;2023-02-21T15:22:04;13.63;;;1.85;;
64110;SDS011;50401;48.188;11.566;2023-02-21T15:24:40;17.17;;;1.63;;
64110;SDS011;50401;48.188;11.566;2023-02-21T15:27:12;9.43;;;1.10;;
64110;SDS011;50401;48.188;11.566;2023-02-21T15:29:38;23.25;;;1.98;;
64110;SDS011;50401;48.188;11.566;2023-02-21T15:32:05;19.23;;;2.22;;
64110;SDS011;50401;48.188;11.566;2023-02-21T15:34:32;12.55;;;1.70;;
64110;SDS011;50401;48.188;11.566;2023-02-21T15:39:41;9.63;;;1.80;;
64110;SDS011;50401;48.188;11.566;2023-02-21T15:42:09;9.38;;;1.42;;
64110;SDS011;50401;48.188;11.566;2023-02-21T15:44:39;16.20;;;1.50;;
64110;SDS011;50401;48.188;11.566;2023-02-21T15:47:11;15.70;;;2.05;;
64110;SDS011;50401;48.188;11.566;2023-02-21T15:49:40;5.78;;;2.28;;
64110;SDS011;50401;48.188;11.566;2023-02-21T15:52:24;6.68;;;1.55;;
64110;SDS011;50401;48.188;11.566;2023-02-21T15:55:12;11.43;;;1.70;;
64110;SDS011;50401;48.188;11.566;2023-02-21T16:00:41;16.00;;;3.38;;
64110;SDS011;50401;48.188;11.566;2023-02-21T16:03:29;11.00;;;2.20;;
64110;SDS011;50401;48.188;11.566;2023-02-21T16:06:06;14.05;;;2.70;;
64110;SDS011;50401;48.188;11.566;2023-02-21T16:14:14;12.27;;;1.55;;
64110;SDS011;50401;48.188;11.566;2023-02-21T16:16:44;24.02;;;2.53;;
64110;SDS011;50401;48.188;11.566;2023-02-21T16:19:11;9.75;;;2.22;;
64110;SDS011;50401;48.188;11.566;2023-02-21T16:21:37;16.25;;;1.17;;
64110;SDS011;50401;48.188;11.566;2023-02-21T16:24:14;13.07;;;1.63;;
64110;SDS011;50401;48.188;11.566;2023-02-21T16:27:02;7.72;;;1.35;;
64110;SDS011;50401;48.188;11.566;2023-02-21T16:29:29;3.50;;;1.35;;
64110;SDS011;50401;48.188;11.566;2023-02-21T16:31:55;8.05;;;1.50;;
64110;SDS011;50401;48.188;11.566;2023-02-21T16:34:20;10.82;;;1.70;;
64110;SDS011;50401;48.188;11.566;2023-02-21T16:36:46;13.68;;;1.50;;
64110;SDS011;50401;48.188;11.566;2023-02-21T16:39:12;4.50;;;1.67;;
64110;SDS011;50401;48.188;11.566;2023-02-21T16:41:37;7.28;;;1.80;;
64110;SDS011;50401;48.188;11.566;2023-02-21T16:44:03;7.88;;;1.35;;
64110;SDS011;50401;48.188;11.566;2023-02-21T16:46:28;13.60;;;1.90;;
64110;SDS011;50401;48.188;11.566;2023-02-21T16:48:53;9.25;;;1.63;;
64110;SDS011;50401;48.188;11.566;2023-02-21T16:51:19;8.77;;;1.45;;
64110;SDS011;50401;48.188;11.566;2023-02-21T16:53:44;3.40;;;1.52;;
64110;SDS011;50401;48.188;11.566;2023-02-21T16:56:11;13.15;;;1.88;;
64110;SDS011;50401;48.188;11.566;2023-02-21T16:58:47;12.05;;;1.60;;
64110;SDS011;50401;48.188;11.566;2023-02-21T17:01:36;7.28;;;1.75;;
64110;SDS011;50401;48.188;11.566;2023-02-21T17:04:04;7.55;;;2.03;;
64110;SDS011;50401;48.188;11.566;2023-02-21T17:06:31;8.38;;;1.63;;
64110;SDS011;50401;48.188;11.566;2023-02-21T17:08:58;7.55;;;1.67;;
64110;SDS011;50401;48.188;11.566;2023-02-21T17:11:24;8.07;;;1.52;;
64110;SDS011;50401;48.188;11.566;2023-02-21T17:13:50;12.52;;;2.00;;
64110;SDS011;50401;48.188;11.566;2023-02-21T17:16:15;11.25;;;1.92;;
64110;SDS011;50401;48.188;11.566;2023-02-21T17:18:44;5.85;;;1.65;;
64110;SDS011;50401;48.188;11.566;2023-02-21T17:21:10;19.45;;;1.65;;
64110;SDS011;50401;48.188;11.566;2023-02-21T17:23:35;16.08;;;2.60;;
64110;SDS011;50401;48.188;11.566;2023-02-21T17:26:01;14.52;;;2.08;;
64110;SDS011;50401;48.188;11.566;2023-02-21T17:28:27;5.35;;;1.92;;
64110;SDS011;50401;48.188;11.566;2023-02-21T17:30:53;8.35;;;3.15;;
64110;SDS011;50401;48.188;11.566;2023-02-21T17:33:19;10.07;;;2.90;;
64110;SDS011;50401;48.188;11.566;2023-02-21T17:35:44;11.07;;;2.50;;
64110;SDS011;50401;48.188;11.566;2023-02-21T17:38:10;15.32;;;2.88;;
64110;SDS011;50401;48.188;11.566;2023-02-21T17:40:35;34.42;;;3.95;;
64110;SDS011;50401;48.188;11.566;2023-02-21T17:43:01;15.88;;;3.00;;
64110;SDS011;50401;48.188;11.566;2023-02-21T17:45:28;14.77;;;2.70;;
64110;SDS011;50401;48.188;11.566;2023-02-21T17:47:54;12.27;;;3.08;;
64110;SDS011;50401;48.188;11.566;2023-02-21T17:50:19;5.68;;;2.60;;
64110;SDS011;50401;48.188;11.566;2023-02-21T17:52:45;7.75;;;3.00;;
64110;SDS011;50401;48.188;11.566;2023-02-21T17:55:15;11.00;;;3.63;;